sensor_id;sensor_type;location;lat;lon;timestamp;P1;durP1;ratioP1;P2;durP2;ratioP2
4317;SDS011;2172;53.576;9.934;2023-05-07T00:01:42;19.10;;;15.33;;
4317;SDS011;2172;53.576;9.934;2023-05-07T00:04:09;15.70;;;14.00;;
4317;SDS011;2172;53.576;9.934;2023-05-07T00:06:38;19.40;;;14.90;;
4317;SDS011;2172;53.576;9.934;2023-05-07T00:09:05;17.27;;;13.70;;
4317;SDS011;2172;53.576;9.934;2023-05-07T00:11:33;19.20;;;14.70;;
4317;SDS011;2172;53.576;9.934;2023-05-07T00:14:01;19.53;;;14.60;;
4317;SDS011;2172;53.576;9.934;2023-05-07T00:16:29;16.50;;;14.63;;
4317;SDS011;2172;53.576;9.934;2023-05-07T00:18:57;18.67;;;15.03;;
4317;SDS011;2172;53.576;9.934;2023-05-07T00:21:25;18.47;;;14.60;;
4317;SDS011;2172;53.576;9.934;2023-05-07T00:23:53;19.40;;;14.50;;
4317;SDS011;2172;53.576;9.934;2023-05-07T00:26:21;16.83;;;14.10;;
4317;SDS011;2172;53.576;9.934;2023-05-07T00:28:50;20.60;;;16.10;;
4317;SDS011;2172;53.576;9.934;2023-05-07T00:31:17;17.83;;;15.23;;
4317;SDS011;2172;53.576;9.934;2023-05-07T00:33:45;16.83;;;13.80;;
4317;SDS011;2172;53.576;9.934;2023-05-07T00:36:14;16.70;;;14.63;;
4317;SDS011;2172;53.576;9.934;2023-05-07T00:38:41;19.57;;;15.80;;
4317;SDS011;2172;53.576;9.934;2023-05-07T00:41:09;18.53;;;15.20;;
4317;SDS011;2172;53.576;9.934;2023-05-07T00:43:37;16.77;;;15.07;;
4317;SDS011;2172;53.576;9.934;2023-05-07T00:46:05;18.13;;;14.40;;
4317;SDS011;2172;53.576;9.934;2023-05-07T00:48:32;17.33;;;14.00;;
4317;SDS011;2172;53.576;9.934;2023-05-07T00:51:00;22.23;;;13.87;;
4317;SDS011;2172;53.576;9.934;2023-05-07T00:53:29;17.13;;;13.37;;
4317;SDS011;2172;53.576;9.934;2023-05-07T00:55:57;16.33;;;13.83;;
4317;SDS011;2172;53.576;9.934;2023-05-07T00:58:26;14.57;;;13.07;;
4317;SDS011;2172;53.576;9.934;2023-05-07T01:00:53;17.40;;;12.90;;
4317;SDS011;2172;53.576;9.934;2023-05-07T01:03:21;17.67;;;14.07;;
4317;SDS011;2172;53.576;9.934;2023-05-07T01:05:49;16.73;;;12.90;;
4317;SDS011;2172;53.576;9.934;2023-05-07T01:08:17;16.43;;;13.47;;
4317;SDS011;2172;53.576;9.934;2023-05-07T01:10:46;15.63;;;13.87;;
4317;SDS011;2172;53.576;9.934;2023-05-07T01:13:14;16.80;;;14.37;;
4317;SDS011;2172;53.576;9.934;2023-05-07T01:15:42;15.50;;;13.80;;
4317;SDS011;2172;53.576;9.934;2023-05-07T01:18:10;18.80;;;13.23;;
4317;SDS011;2172;53.576;9.934;2023-05-07T01:20:38;16.30;;;14.30;;
4317;SDS011;2172;53.576;9.934;2023-05-07T01:23:07;15.90;;;14.20;;
4317;SDS011;2172;53.576;9.934;2023-05-07T01:25:34;18.70;;;14.00;;
4317;SDS011;2172;53.576;9.934;2023-05-07T01:28:03;18.30;;;14.50;;
4317;SDS011;2172;53.576;9.934;2023-05-07T01:30:33;17.67;;;14.60;;
4317;SDS011;2172;53.576;9.934;2023-05-07T01:33:06;15.50;;;13.33;;
4317;SDS011;2172;53.576;9.934;2023-05-07T01:35:37;14.20;;;12.70;;
4317;SDS011;2172;53.576;9.934;2023-05-07T01:38:08;16.53;;;12.73;;
4317;SDS011;2172;53.576;9.934;2023-05-07T01:40:36;15.87;;;12.53;;
4317;SDS011;2172;53.576;9.934;2023-05-07T01:43:07;14.33;;;12.20;;
4317;SDS011;2172;53.576;9.934;2023-05-07T01:45:36;13.50;;;12.00;;
4317;SDS011;2172;53.576;9.934;2023-05-07T01:48:03;16.27;;;13.00;;
4317;SDS011;2172;53.576;9.934;2023-05-07T01:50:33;14.60;;;12.40;;
4317;SDS011;2172;53.576;9.934;2023-05-07T01:53:01;14.20;;;12.07;;
4317;SDS011;2172;53.576;9.934;2023-05-07T01:55:30;14.87;;;12.10;;
4317;SDS011;2172;53.576;9.934;2023-05-07T01:57:58;14.63;;;13.03;;
4317;SDS011;2172;53.576;9.934;2023-05-07T02:00:27;17.17;;;12.83;;
4317;SDS011;2172;53.576;9.934;2023-05-07T02:02:54;14.33;;;12.80;;
4317;SDS011;2172;53.576;9.934;2023-05-07T02:05:33;17.80;;;13.67;;
4317;SDS011;2172;53.576;9.934;2023-05-07T02:08:07;13.83;;;11.50;;
4317;SDS011;2172;53.576;9.934;2023-05-07T02:10:37;14.57;;;13.00;;
4317;SDS011;2172;53.576;9.934;2023-05-07T02:13:05;14.00;;;12.50;;
4317;SDS011;2172;53.576;9.934;2023-05-07T02:15:33;13.67;;;12.10;;
4317;SDS011;2172;53.576;9.934;2023-05-07T02:18:03;12.53;;;11.23;;
4317;SDS011;2172;53.576;9.934;2023-05-07T02:20:32;14.57;;;12.83;;
4317;SDS011;2172;53.576;9.934;2023-05-07T02:22:59;13.23;;;11.77;;
4317;SDS011;2172;53.576;9.934;2023-05-07T02:25:28;14.33;;;12.00;;
4317;SDS011;2172;53.576;9.934;2023-05-07T02:27:58;15.13;;;12.03;;
4317;SDS011;2172;53.576;9.934;2023-05-07T02:30:48;13.77;;;11.87;;
4317;SDS011;2172;53.576;9.934;2023-05-07T02:33:16;13.37;;;11.67;;
4317;SDS011;2172;53.576;9.934;2023-05-07T02:35:44;12.97;;;11.63;;
4317;SDS011;2172;53.576;9.934;2023-05-07T02:38:13;15.57;;;11.73;;
4317;SDS011;2172;53.576;9.934;2023-05-07T02:40:42;13.33;;;11.83;;
4317;SDS011;2172;53.576;9.934;2023-05-07T02:43:11;15.83;;;11.53;;
4317;SDS011;2172;53.576;9.934;2023-05-07T02:45:42;15.50;;;12.40;;
4317;SDS011;2172;53.576;9.934;2023-05-07T02:48:10;13.40;;;11.87;;
4317;SDS011;2172;53.576;9.934;2023-05-07T02:50:38;14.30;;;10.70;;
4317;SDS011;2172;53.576;9.934;2023-05-07T02:53:05;15.60;;;12.20;;
4317;SDS011;2172;53.576;9.934;2023-05-07T02:55:33;14.00;;;11.57;;
4317;SDS011;2172;53.576;9.934;2023-05-07T02:58:01;16.67;;;12.57;;
4317;SDS011;2172;53.576;9.934;2023-05-07T03:00:33;14.20;;;11.87;;
4317;SDS011;2172;53.576;9.934;2023-05-07T03:03:27;14.50;;;11.20;;
4317;SDS011;2172;53.576;9.934;2023-05-07T03:05:55;13.20;;;11.13;;
4317;SDS011;2172;53.576;9.934;2023-05-07T03:08:22;13.90;;;11.50;;
4317;SDS011;2172;53.576;9.934;2023-05-07T03:10:50;14.53;;;11.87;;
4317;SDS011;2172;53.576;9.934;2023-05-07T03:13:18;15.63;;;12.30;;
4317;SDS011;2172;53.576;9.934;2023-05-07T03:15:47;15.93;;;12.17;;
4317;SDS011;2172;53.576;9.934;2023-05-07T03:18:17;15.40;;;12.67;;
4317;SDS011;2172;53.576;9.934;2023-05-07T03:20:45;16.20;;;12.57;;
4317;SDS011;2172;53.576;9.934;2023-05-07T03:23:15;17.20;;;13.13;;
4317;SDS011;2172;53.576;9.934;2023-05-07T03:25:45;18.83;;;12.63;;
4317;SDS011;2172;53.576;9.934;2023-05-07T03:28:13;16.40;;;12.90;;
4317;SDS011;2172;53.576;9.934;2023-05-07T03:30:48;16.93;;;12.50;;
4317;SDS011;2172;53.576;9.934;2023-05-07T03:33:16;19.67;;;14.60;;
4317;SDS011;2172;53.576;9.934;2023-05-07T03:35:44;17.60;;;14.30;;
4317;SDS011;2172;53.576;9.934;2023-05-07T03:38:16;14.90;;;12.50;;
4317;SDS011;2172;53.576;9.934;2023-05-07T03:40:44;15.13;;;13.53;;
4317;SDS011;2172;53.576;9.934;2023-05-07T03:43:12;15.80;;;13.53;;
4317;SDS011;2172;53.576;9.934;2023-05-07T03:45:44;17.50;;;14.30;;
4317;SDS011;2172;53.576;9.934;2023-05-07T03:48:18;14.57;;;12.23;;
4317;SDS011;2172;53.576;9.934;2023-05-07T03:50:47;16.97;;;13.27;;
4317;SDS011;2172;53.576;9.934;2023-05-07T03:53:16;16.40;;;12.20;;
4317;SDS011;2172;53.576;9.934;2023-05-07T03:55:44;14.93;;;12.73;;
4317;SDS011;2172;53.576;9.934;2023-05-07T03:58:11;15.57;;;13.23;;
4317;SDS011;2172;53.576;9.934;2023-05-07T04:00:39;18.53;;;13.40;;
4317;SDS011;2172;53.576;9.934;2023-05-07T04:03:17;16.77;;;13.53;;
4317;SDS011;2172;53.576;9.934;2023-05-07T04:05:45;15.13;;;13.37;;
4317;SDS011;2172;53.576;9.934;2023-05-07T04:08:13;14.90;;;12.23;;
4317;SDS011;2172;53.576;9.934;2023-05-07T04:10:45;13.47;;;11.53;;
4317;SDS011;2172;53.576;9.934;2023-05-07T04:13:13;15.33;;;13.00;;
4317;SDS011;2172;53.576;9.934;2023-05-07T04:15:41;14.30;;;12.53;;
4317;SDS011;2172;53.576;9.934;2023-05-07T04:18:11;15.90;;;12.27;;
4317;SDS011;2172;53.576;9.934;2023-05-07T04:20:42;16.67;;;12.80;;
4317;SDS011;2172;53.576;9.934;2023-05-07T04:23:12;16.10;;;13.50;;
4317;SDS011;2172;53.576;9.934;2023-05-07T04:25:40;15.97;;;12.77;;
4317;SDS011;2172;53.576;9.934;2023-05-07T04:28:21;13.43;;;11.90;;
4317;SDS011;2172;53.576;9.934;2023-05-07T04:30:49;15.70;;;14.10;;
4317;SDS011;2172;53.576;9.934;2023-05-07T04:33:18;14.40;;;12.50;;
4317;SDS011;2172;53.576;9.934;2023-05-07T04:35:48;15.20;;;13.60;;
4317;SDS011;2172;53.576;9.934;2023-05-07T04:38:16;15.90;;;12.63;;
4317;SDS011;2172;53.576;9.934;2023-05-07T04:40:46;14.47;;;12.90;;
4317;SDS011;2172;53.576;9.934;2023-05-07T04:43:17;15.20;;;13.60;;
4317;SDS011;2172;53.576;9.934;2023-05-07T04:45:49;16.03;;;13.50;;
4317;SDS011;2172;53.576;9.934;2023-05-07T04:48:17;14.67;;;12.40;;
4317;SDS011;2172;53.576;9.934;2023-05-07T04:50:48;15.90;;;12.63;;
4317;SDS011;2172;53.576;9.934;2023-05-07T04:53:17;15.50;;;12.60;;
4317;SDS011;2172;53.576;9.934;2023-05-07T04:55:47;16.97;;;13.20;;
4317;SDS011;2172;53.576;9.934;2023-05-07T04:58:16;13.23;;;11.87;;
4317;SDS011;2172;53.576;9.934;2023-05-07T05:00:46;14.60;;;13.10;;
4317;SDS011;2172;53.576;9.934;2023-05-07T05:03:13;12.60;;;11.30;;
4317;SDS011;2172;53.576;9.934;2023-05-07T05:05:41;14.80;;;12.77;;
4317;SDS011;2172;53.576;9.934;2023-05-07T05:08:10;14.03;;;12.10;;
4317;SDS011;2172;53.576;9.934;2023-05-07T05:10:40;14.10;;;11.53;;
4317;SDS011;2172;53.576;9.934;2023-05-07T05:13:09;14.17;;;11.40;;
4317;SDS011;2172;53.576;9.934;2023-05-07T05:15:38;13.17;;;11.40;;
4317;SDS011;2172;53.576;9.934;2023-05-07T05:18:08;12.13;;;10.77;;
4317;SDS011;2172;53.576;9.934;2023-05-07T05:20:38;13.10;;;10.63;;
4317;SDS011;2172;53.576;9.934;2023-05-07T05:23:07;13.47;;;12.03;;
4317;SDS011;2172;53.576;9.934;2023-05-07T05:25:36;12.37;;;11.00;;
4317;SDS011;2172;53.576;9.934;2023-05-07T05:28:04;13.83;;;12.30;;
4317;SDS011;2172;53.576;9.934;2023-05-07T05:30:33;14.23;;;11.20;;
4317;SDS011;2172;53.576;9.934;2023-05-07T05:33:01;13.83;;;11.40;;
4317;SDS011;2172;53.576;9.934;2023-05-07T05:35:29;15.03;;;11.03;;
4317;SDS011;2172;53.576;9.934;2023-05-07T05:37:58;21.53;;;11.90;;
4317;SDS011;2172;53.576;9.934;2023-05-07T05:40:27;13.47;;;12.07;;
4317;SDS011;2172;53.576;9.934;2023-05-07T05:42:55;13.73;;;10.83;;
4317;SDS011;2172;53.576;9.934;2023-05-07T05:45:23;14.30;;;11.50;;
4317;SDS011;2172;53.576;9.934;2023-05-07T05:47:51;15.73;;;12.00;;
4317;SDS011;2172;53.576;9.934;2023-05-07T05:50:18;14.00;;;11.50;;
4317;SDS011;2172;53.576;9.934;2023-05-07T05:52:47;14.77;;;12.33;;
4317;SDS011;2172;53.576;9.934;2023-05-07T05:55:16;16.13;;;12.27;;
4317;SDS011;2172;53.576;9.934;2023-05-07T05:57:46;14.10;;;11.77;;
4317;SDS011;2172;53.576;9.934;2023-05-07T06:00:15;12.63;;;11.27;;
4317;SDS011;2172;53.576;9.934;2023-05-07T06:02:45;12.87;;;11.57;;
4317;SDS011;2172;53.576;9.934;2023-05-07T06:05:19;13.17;;;11.37;;
4317;SDS011;2172;53.576;9.934;2023-05-07T06:07:50;14.87;;;12.43;;
4317;SDS011;2172;53.576;9.934;2023-05-07T06:10:18;14.70;;;12.57;;
4317;SDS011;2172;53.576;9.934;2023-05-07T06:12:47;13.17;;;11.53;;
4317;SDS011;2172;53.576;9.934;2023-05-07T06:15:16;16.13;;;12.97;;
4317;SDS011;2172;53.576;9.934;2023-05-07T06:17:46;15.70;;;11.07;;
4317;SDS011;2172;53.576;9.934;2023-05-07T06:20:15;13.30;;;11.90;;
4317;SDS011;2172;53.576;9.934;2023-05-07T06:22:43;13.63;;;11.83;;
4317;SDS011;2172;53.576;9.934;2023-05-07T06:25:12;15.57;;;12.13;;
4317;SDS011;2172;53.576;9.934;2023-05-07T06:27:42;13.43;;;11.80;;
4317;SDS011;2172;53.576;9.934;2023-05-07T06:30:11;16.03;;;11.13;;
4317;SDS011;2172;53.576;9.934;2023-05-07T06:32:39;13.30;;;11.90;;
4317;SDS011;2172;53.576;9.934;2023-05-07T06:35:11;12.20;;;10.73;;
4317;SDS011;2172;53.576;9.934;2023-05-07T06:37:40;13.60;;;11.13;;
4317;SDS011;2172;53.576;9.934;2023-05-07T06:40:13;11.97;;;9.97;;
4317;SDS011;2172;53.576;9.934;2023-05-07T06:42:41;14.57;;;11.83;;
4317;SDS011;2172;53.576;9.934;2023-05-07T06:45:30;12.20;;;10.87;;
4317;SDS011;2172;53.576;9.934;2023-05-07T06:47:57;13.67;;;11.70;;
4317;SDS011;2172;53.576;9.934;2023-05-07T06:50:27;14.33;;;11.73;;
4317;SDS011;2172;53.576;9.934;2023-05-07T06:52:56;13.47;;;11.63;;
4317;SDS011;2172;53.576;9.934;2023-05-07T06:55:24;13.00;;;11.60;;
4317;SDS011;2172;53.576;9.934;2023-05-07T06:57:53;14.03;;;12.07;;
4317;SDS011;2172;53.576;9.934;2023-05-07T07:00:24;15.53;;;11.73;;
4317;SDS011;2172;53.576;9.934;2023-05-07T07:02:56;16.47;;;12.70;;
4317;SDS011;2172;53.576;9.934;2023-05-07T07:05:26;12.83;;;11.00;;
4317;SDS011;2172;53.576;9.934;2023-05-07T07:07:55;13.70;;;11.20;;
4317;SDS011;2172;53.576;9.934;2023-05-07T07:10:23;13.87;;;10.93;;
4317;SDS011;2172;53.576;9.934;2023-05-07T07:12:52;12.23;;;10.90;;
4317;SDS011;2172;53.576;9.934;2023-05-07T07:15:20;11.03;;;9.83;;
4317;SDS011;2172;53.576;9.934;2023-05-07T07:17:50;12.60;;;10.37;;
4317;SDS011;2172;53.576;9.934;2023-05-07T07:20:20;11.00;;;9.67;;
4317;SDS011;2172;53.576;9.934;2023-05-07T07:22:48;12.70;;;10.03;;
4317;SDS011;2172;53.576;9.934;2023-05-07T07:25:16;12.07;;;10.60;;
4317;SDS011;2172;53.576;9.934;2023-05-07T07:27:44;10.60;;;8.97;;
4317;SDS011;2172;53.576;9.934;2023-05-07T07:30:14;11.80;;;10.27;;
4317;SDS011;2172;53.576;9.934;2023-05-07T07:32:45;11.47;;;10.17;;
4317;SDS011;2172;53.576;9.934;2023-05-07T07:35:14;10.60;;;9.60;;
4317;SDS011;2172;53.576;9.934;2023-05-07T07:37:44;9.80;;;8.80;;
4317;SDS011;2172;53.576;9.934;2023-05-07T07:40:13;10.80;;;9.53;;
4317;SDS011;2172;53.576;9.934;2023-05-07T07:42:41;11.47;;;9.67;;
4317;SDS011;2172;53.576;9.934;2023-05-07T07:45:10;11.27;;;9.13;;
4317;SDS011;2172;53.576;9.934;2023-05-07T07:47:42;11.50;;;10.30;;
4317;SDS011;2172;53.576;9.934;2023-05-07T07:50:10;11.20;;;9.73;;
4317;SDS011;2172;53.576;9.934;2023-05-07T07:52:37;10.90;;;9.80;;
4317;SDS011;2172;53.576;9.934;2023-05-07T07:55:08;10.33;;;9.33;;
4317;SDS011;2172;53.576;9.934;2023-05-07T07:57:38;11.90;;;10.70;;
4317;SDS011;2172;53.576;9.934;2023-05-07T08:00:06;11.10;;;9.90;;
4317;SDS011;2172;53.576;9.934;2023-05-07T08:02:42;13.13;;;10.60;;
4317;SDS011;2172;53.576;9.934;2023-05-07T08:05:15;12.50;;;10.00;;
4317;SDS011;2172;53.576;9.934;2023-05-07T08:07:43;11.20;;;9.80;;
4317;SDS011;2172;53.576;9.934;2023-05-07T08:10:13;9.93;;;9.03;;
4317;SDS011;2172;53.576;9.934;2023-05-07T08:12:47;11.50;;;10.13;;
4317;SDS011;2172;53.576;9.934;2023-05-07T08:15:15;11.40;;;9.80;;
4317;SDS011;2172;53.576;9.934;2023-05-07T08:17:45;10.47;;;9.40;;
4317;SDS011;2172;53.576;9.934;2023-05-07T08:20:13;10.90;;;9.47;;
4317;SDS011;2172;53.576;9.934;2023-05-07T08:22:41;11.60;;;9.80;;
4317;SDS011;2172;53.576;9.934;2023-05-07T08:25:09;12.13;;;9.23;;
4317;SDS011;2172;53.576;9.934;2023-05-07T08:27:38;11.10;;;9.77;;
4317;SDS011;2172;53.576;9.934;2023-05-07T08:30:06;10.80;;;9.37;;
4317;SDS011;2172;53.576;9.934;2023-05-07T08:32:35;10.63;;;9.53;;
4317;SDS011;2172;53.576;9.934;2023-05-07T08:35:02;10.20;;;8.13;;
4317;SDS011;2172;53.576;9.934;2023-05-07T08:37:30;10.00;;;9.00;;
4317;SDS011;2172;53.576;9.934;2023-05-07T08:39:58;9.57;;;8.67;;
4317;SDS011;2172;53.576;9.934;2023-05-07T08:42:30;8.97;;;8.17;;
4317;SDS011;2172;53.576;9.934;2023-05-07T08:44:59;11.23;;;10.03;;
4317;SDS011;2172;53.576;9.934;2023-05-07T08:47:29;9.73;;;8.73;;
4317;SDS011;2172;53.576;9.934;2023-05-07T08:50:01;10.50;;;9.50;;
4317;SDS011;2172;53.576;9.934;2023-05-07T08:52:29;9.17;;;8.20;;
4317;SDS011;2172;53.576;9.934;2023-05-07T08:54:56;10.87;;;9.83;;
4317;SDS011;2172;53.576;9.934;2023-05-07T08:57:25;11.63;;;9.20;;
4317;SDS011;2172;53.576;9.934;2023-05-07T08:59:55;10.93;;;9.83;;
4317;SDS011;2172;53.576;9.934;2023-05-07T09:02:24;10.90;;;9.80;;
4317;SDS011;2172;53.576;9.934;2023-05-07T09:04:54;13.20;;;10.40;;
4317;SDS011;2172;53.576;9.934;2023-05-07T09:07:22;11.33;;;10.23;;
4317;SDS011;2172;53.576;9.934;2023-05-07T09:09:53;11.27;;;10.17;;
4317;SDS011;2172;53.576;9.934;2023-05-07T09:12:20;11.53;;;10.37;;
4317;SDS011;2172;53.576;9.934;2023-05-07T09:14:48;12.07;;;10.60;;
4317;SDS011;2172;53.576;9.934;2023-05-07T09:17:16;11.47;;;10.07;;
4317;SDS011;2172;53.576;9.934;2023-05-07T09:19:45;11.30;;;10.10;;
4317;SDS011;2172;53.576;9.934;2023-05-07T09:22:14;12.10;;;9.23;;
4317;SDS011;2172;53.576;9.934;2023-05-07T09:24:51;9.87;;;8.97;;
4317;SDS011;2172;53.576;9.934;2023-05-07T09:27:23;10.70;;;9.70;;
4317;SDS011;2172;53.576;9.934;2023-05-07T09:29:52;10.07;;;9.03;;
4317;SDS011;2172;53.576;9.934;2023-05-07T09:32:19;10.47;;;9.17;;
4317;SDS011;2172;53.576;9.934;2023-05-07T09:34:48;10.43;;;9.30;;
4317;SDS011;2172;53.576;9.934;2023-05-07T09:37:19;14.00;;;8.87;;
4317;SDS011;2172;53.576;9.934;2023-05-07T09:39:48;11.33;;;8.93;;
4317;SDS011;2172;53.576;9.934;2023-05-07T09:42:22;10.10;;;9.10;;
4317;SDS011;2172;53.576;9.934;2023-05-07T09:44:54;9.87;;;8.87;;
4317;SDS011;2172;53.576;9.934;2023-05-07T09:47:25;9.97;;;9.07;;
4317;SDS011;2172;53.576;9.934;2023-05-07T09:50:01;9.70;;;8.80;;
4317;SDS011;2172;53.576;9.934;2023-05-07T09:52:32;8.70;;;7.90;;
4317;SDS011;2172;53.576;9.934;2023-05-07T09:55:04;10.10;;;9.10;;
4317;SDS011;2172;53.576;9.934;2023-05-07T09:57:32;10.30;;;9.30;;
4317;SDS011;2172;53.576;9.934;2023-05-07T10:00:04;10.10;;;9.00;;
4317;SDS011;2172;53.576;9.934;2023-05-07T10:02:46;10.47;;;9.30;;
4317;SDS011;2172;53.576;9.934;2023-05-07T10:05:19;10.30;;;8.70;;
4317;SDS011;2172;53.576;9.934;2023-05-07T10:07:48;12.97;;;9.40;;
4317;SDS011;2172;53.576;9.934;2023-05-07T10:10:17;10.63;;;9.53;;
4317;SDS011;2172;53.576;9.934;2023-05-07T10:12:45;10.47;;;8.83;;
4317;SDS011;2172;53.576;9.934;2023-05-07T10:15:20;9.73;;;8.73;;
4317;SDS011;2172;53.576;9.934;2023-05-07T10:17:52;9.20;;;8.30;;
4317;SDS011;2172;53.576;9.934;2023-05-07T10:20:22;10.60;;;8.70;;
4317;SDS011;2172;53.576;9.934;2023-05-07T10:22:50;11.70;;;9.40;;
4317;SDS011;2172;53.576;9.934;2023-05-07T10:25:25;9.83;;;8.77;;
4317;SDS011;2172;53.576;9.934;2023-05-07T10:27:57;10.40;;;9.37;;
4317;SDS011;2172;53.576;9.934;2023-05-07T10:30:31;10.57;;;9.47;;
4317;SDS011;2172;53.576;9.934;2023-05-07T10:33:06;8.40;;;7.60;;
4317;SDS011;2172;53.576;9.934;2023-05-07T10:35:42;10.17;;;9.07;;
4317;SDS011;2172;53.576;9.934;2023-05-07T10:38:11;11.60;;;9.40;;
4317;SDS011;2172;53.576;9.934;2023-05-07T10:40:42;10.60;;;8.60;;
4317;SDS011;2172;53.576;9.934;2023-05-07T10:43:10;9.70;;;8.90;;
4317;SDS011;2172;53.576;9.934;2023-05-07T10:45:44;9.10;;;8.30;;
4317;SDS011;2172;53.576;9.934;2023-05-07T10:49:07;9.30;;;8.40;;
4317;SDS011;2172;53.576;9.934;2023-05-07T10:55:18;9.53;;;8.67;;
4317;SDS011;2172;53.576;9.934;2023-05-07T10:57:55;9.60;;;8.70;;
4317;SDS011;2172;53.576;9.934;2023-05-07T11:00:42;8.33;;;7.63;;
4317;SDS011;2172;53.576;9.934;2023-05-07T11:03:18;10.30;;;8.60;;
4317;SDS011;2172;53.576;9.934;2023-05-07T11:06:11;8.57;;;7.87;;
4317;SDS011;2172;53.576;9.934;2023-05-07T11:08:55;8.30;;;7.50;;
4317;SDS011;2172;53.576;9.934;2023-05-07T11:11:46;8.33;;;7.43;;
4317;SDS011;2172;53.576;9.934;2023-05-07T11:14:45;9.70;;;8.67;;
4317;SDS011;2172;53.576;9.934;2023-05-07T11:17:34;8.67;;;7.83;;
4317;SDS011;2172;53.576;9.934;2023-05-07T11:20:05;8.83;;;8.03;;
4317;SDS011;2172;53.576;9.934;2023-05-07T11:22:45;8.43;;;7.63;;
4317;SDS011;2172;53.576;9.934;2023-05-07T11:25:34;9.77;;;8.47;;
4317;SDS011;2172;53.576;9.934;2023-05-07T11:28:09;7.70;;;7.00;;
4317;SDS011;2172;53.576;9.934;2023-05-07T11:30:55;8.57;;;7.67;;
4317;SDS011;2172;53.576;9.934;2023-05-07T11:33:24;8.73;;;8.00;;
4317;SDS011;2172;53.576;9.934;2023-05-07T11:35:53;9.67;;;8.77;;
4317;SDS011;2172;53.576;9.934;2023-05-07T11:38:25;8.70;;;7.90;;
4317;SDS011;2172;53.576;9.934;2023-05-07T11:40:54;8.67;;;7.87;;
4317;SDS011;2172;53.576;9.934;2023-05-07T11:43:22;8.73;;;7.90;;
4317;SDS011;2172;53.576;9.934;2023-05-07T11:45:50;8.30;;;7.50;;
4317;SDS011;2172;53.576;9.934;2023-05-07T11:48:18;8.60;;;7.63;;
4317;SDS011;2172;53.576;9.934;2023-05-07T11:50:59;8.90;;;8.00;;
4317;SDS011;2172;53.576;9.934;2023-05-07T11:53:35;8.50;;;7.70;;
4317;SDS011;2172;53.576;9.934;2023-05-07T11:56:08;8.93;;;7.20;;
4317;SDS011;2172;53.576;9.934;2023-05-07T11:58:36;8.23;;;7.27;;
4317;SDS011;2172;53.576;9.934;2023-05-07T12:01:06;6.70;;;6.00;;
4317;SDS011;2172;53.576;9.934;2023-05-07T12:03:35;9.63;;;6.87;;
4317;SDS011;2172;53.576;9.934;2023-05-07T12:06:05;7.13;;;6.53;;
4317;SDS011;2172;53.576;9.934;2023-05-07T12:08:33;7.03;;;6.43;;
4317;SDS011;2172;53.576;9.934;2023-05-07T12:11:04;9.10;;;7.03;;
4317;SDS011;2172;53.576;9.934;2023-05-07T12:13:36;9.93;;;6.50;;
4317;SDS011;2172;53.576;9.934;2023-05-07T12:16:05;6.93;;;6.33;;
4317;SDS011;2172;53.576;9.934;2023-05-07T12:18:34;6.50;;;5.90;;
4317;SDS011;2172;53.576;9.934;2023-05-07T12:21:02;6.37;;;5.87;;
4317;SDS011;2172;53.576;9.934;2023-05-07T12:23:31;6.37;;;5.77;;
4317;SDS011;2172;53.576;9.934;2023-05-07T12:25:59;6.80;;;6.23;;
4317;SDS011;2172;53.576;9.934;2023-05-07T12:28:31;6.90;;;6.20;;
4317;SDS011;2172;53.576;9.934;2023-05-07T12:31:03;6.40;;;5.80;;
4317;SDS011;2172;53.576;9.934;2023-05-07T12:33:31;7.27;;;6.57;;
4317;SDS011;2172;53.576;9.934;2023-05-07T12:36:02;6.83;;;6.23;;
4317;SDS011;2172;53.576;9.934;2023-05-07T12:38:34;8.70;;;5.90;;
4317;SDS011;2172;53.576;9.934;2023-05-07T12:41:06;7.20;;;6.00;;
4317;SDS011;2172;53.576;9.934;2023-05-07T12:43:35;6.03;;;5.40;;
4317;SDS011;2172;53.576;9.934;2023-05-07T12:46:04;5.70;;;5.20;;
4317;SDS011;2172;53.576;9.934;2023-05-07T12:48:33;5.50;;;5.10;;
4317;SDS011;2172;53.576;9.934;2023-05-07T12:51:02;5.97;;;5.17;;
4317;SDS011;2172;53.576;9.934;2023-05-07T12:53:29;6.03;;;5.43;;
4317;SDS011;2172;53.576;9.934;2023-05-07T12:55:57;6.33;;;5.73;;
4317;SDS011;2172;53.576;9.934;2023-05-07T12:58:26;9.60;;;5.67;;
4317;SDS011;2172;53.576;9.934;2023-05-07T13:00:56;5.63;;;5.23;;
4317;SDS011;2172;53.576;9.934;2023-05-07T13:03:26;5.70;;;5.20;;
4317;SDS011;2172;53.576;9.934;2023-05-07T13:05:54;6.20;;;5.60;;
4317;SDS011;2172;53.576;9.934;2023-05-07T13:08:27;7.23;;;5.80;;
4317;SDS011;2172;53.576;9.934;2023-05-07T13:10:56;5.40;;;4.90;;
4317;SDS011;2172;53.576;9.934;2023-05-07T13:13:24;5.57;;;4.93;;
4317;SDS011;2172;53.576;9.934;2023-05-07T13:15:51;5.70;;;5.20;;
4317;SDS011;2172;53.576;9.934;2023-05-07T13:18:20;5.67;;;5.17;;
4317;SDS011;2172;53.576;9.934;2023-05-07T13:20:48;5.73;;;5.20;;
4317;SDS011;2172;53.576;9.934;2023-05-07T13:23:15;6.00;;;5.50;;
4317;SDS011;2172;53.576;9.934;2023-05-07T13:25:43;8.20;;;4.97;;
4317;SDS011;2172;53.576;9.934;2023-05-07T13:28:10;6.03;;;5.40;;
4317;SDS011;2172;53.576;9.934;2023-05-07T13:30:38;6.10;;;5.60;;
4317;SDS011;2172;53.576;9.934;2023-05-07T13:33:06;5.40;;;4.90;;
4317;SDS011;2172;53.576;9.934;2023-05-07T13:35:36;6.00;;;4.80;;
4317;SDS011;2172;53.576;9.934;2023-05-07T13:38:03;5.67;;;4.77;;
4317;SDS011;2172;53.576;9.934;2023-05-07T13:40:31;4.53;;;4.23;;
4317;SDS011;2172;53.576;9.934;2023-05-07T13:42:59;4.47;;;4.17;;
4317;SDS011;2172;53.576;9.934;2023-05-07T13:45:27;5.73;;;5.23;;
4317;SDS011;2172;53.576;9.934;2023-05-07T13:47:55;6.07;;;4.97;;
4317;SDS011;2172;53.576;9.934;2023-05-07T13:50:23;6.97;;;4.83;;
4317;SDS011;2172;53.576;9.934;2023-05-07T13:52:53;5.20;;;4.80;;
4317;SDS011;2172;53.576;9.934;2023-05-07T13:55:21;4.20;;;3.90;;
4317;SDS011;2172;53.576;9.934;2023-05-07T13:57:54;4.50;;;4.10;;
4317;SDS011;2172;53.576;9.934;2023-05-07T14:00:24;4.80;;;4.40;;
4317;SDS011;2172;53.576;9.934;2023-05-07T14:02:52;4.70;;;4.20;;
4317;SDS011;2172;53.576;9.934;2023-05-07T14:05:20;4.60;;;4.20;;
4317;SDS011;2172;53.576;9.934;2023-05-07T14:07:48;5.03;;;4.63;;
4317;SDS011;2172;53.576;9.934;2023-05-07T14:10:18;5.50;;;4.70;;
4317;SDS011;2172;53.576;9.934;2023-05-07T14:12:46;4.30;;;3.97;;
4317;SDS011;2172;53.576;9.934;2023-05-07T14:15:14;4.57;;;4.17;;
4317;SDS011;2172;53.576;9.934;2023-05-07T14:17:42;5.20;;;4.70;;
4317;SDS011;2172;53.576;9.934;2023-05-07T14:20:10;5.80;;;4.00;;
4317;SDS011;2172;53.576;9.934;2023-05-07T14:22:38;4.63;;;3.90;;
4317;SDS011;2172;53.576;9.934;2023-05-07T14:25:06;5.47;;;3.80;;
4317;SDS011;2172;53.576;9.934;2023-05-07T14:27:36;4.23;;;3.87;;
4317;SDS011;2172;53.576;9.934;2023-05-07T14:30:04;11.83;;;4.57;;
4317;SDS011;2172;53.576;9.934;2023-05-07T14:32:32;3.87;;;3.47;;
4317;SDS011;2172;53.576;9.934;2023-05-07T14:35:08;4.67;;;4.13;;
4317;SDS011;2172;53.576;9.934;2023-05-07T14:37:35;5.10;;;3.83;;
4317;SDS011;2172;53.576;9.934;2023-05-07T14:40:03;4.00;;;3.60;;
4317;SDS011;2172;53.576;9.934;2023-05-07T14:42:31;4.50;;;4.03;;
4317;SDS011;2172;53.576;9.934;2023-05-07T14:45:01;4.00;;;3.70;;
4317;SDS011;2172;53.576;9.934;2023-05-07T14:47:32;4.03;;;3.63;;
4317;SDS011;2172;53.576;9.934;2023-05-07T14:50:00;4.00;;;3.60;;
4317;SDS011;2172;53.576;9.934;2023-05-07T14:52:28;3.67;;;3.37;;
4317;SDS011;2172;53.576;9.934;2023-05-07T14:54:55;5.27;;;3.90;;
4317;SDS011;2172;53.576;9.934;2023-05-07T14:57:23;3.40;;;3.10;;
4317;SDS011;2172;53.576;9.934;2023-05-07T14:59:50;3.73;;;3.43;;
4317;SDS011;2172;53.576;9.934;2023-05-07T15:02:19;3.70;;;3.40;;
4317;SDS011;2172;53.576;9.934;2023-05-07T15:04:47;3.83;;;3.53;;
4317;SDS011;2172;53.576;9.934;2023-05-07T15:07:15;4.23;;;3.93;;
4317;SDS011;2172;53.576;9.934;2023-05-07T15:09:42;6.23;;;4.40;;
4317;SDS011;2172;53.576;9.934;2023-05-07T15:12:10;4.83;;;4.43;;
4317;SDS011;2172;53.576;9.934;2023-05-07T15:14:38;5.10;;;4.70;;
4317;SDS011;2172;53.576;9.934;2023-05-07T15:17:06;6.17;;;5.67;;
4317;SDS011;2172;53.576;9.934;2023-05-07T15:19:35;6.60;;;6.00;;